首页
METAR-TAF:

METAR-TAF

机场 :

加德滿都, 尼泊尔

特里布万国际机场

纬度: 27-42N, 经度: 085-22E, 海拔: 1337米

当前天气观测

该预报发布于30分钟前的02:50 UTC
风速3节,风向东转东南
温度 7°C
湿度 87%
气压 1018 hPa
能見度: 1000
少量云层高于1000英尺
轻雾

METAR: VNKT 200250Z 11003KT 1000 BR FEW010 07/05 Q1018 NOSIG

时间: 09:05 (03:20 UTC)

预报

该预报发布于4小时和20分钟前的23:00 UTC
预报有效从20日的 00点(UTC)到 20日的 24点(UTC)
风速2节,风向多变
能見度: 3000
少量云层高于1000英尺
轻雾
几率 40%
从 20日的 01点(UTC)到 20日的 03点(UTC)
能見度: 1000
轻雾
成为
从 20日的 04点(UTC)到 20日的 05点(UTC)
风速3节,风向东南
能見度: 4000
少量云层高于1000英尺
成为
从 20日的 07点(UTC)到 20日的 08点(UTC)
风速7节,风向西
能見度: 6000
少量云层高于1500英尺
成为
从 20日的 14点(UTC)到 20日的 15点(UTC)
风速2节,风向多变
能見度: 5000
轻雾

TAF: VNKT 192300Z 2000/2024 VRB02KT 3000 BR FEW010 PROB40 2001/2003 1000 BR BECMG 2004/2005 14003KT 4000 HZ FEW010 BECMG 2007/2008 28007KT 6000 FEW015 BECMG 2014/2015 VRB02KT 5000 BR

超过4000个机场的气象观测和天气预报(METAR&TAF报告)。

可查询的气象台以黄色和红色小点在地图上表示。

将鼠标移到小点上方,可查看气象台名称。

然后点击查看天气观测和预报。

如需切换地图:点击带黑十字的绿色按钮放大地图;点击带横线的绿色按钮缩小地图;或者点击绿色箭头查看邻近地区的地图。


METAR-TAF: